sensor_id;sensor_type;location;lat;lon;timestamp;P1;durP1;ratioP1;P2;durP2;ratioP2
71753;SDS011;59593;51.716;7.016;2022-07-22T00:01:21;4.53;;;2.42;;
71753;SDS011;59593;51.716;7.016;2022-07-22T00:03:47;6.18;;;2.80;;
71753;SDS011;59593;51.716;7.016;2022-07-22T00:06:13;5.65;;;2.95;;
71753;SDS011;59593;51.716;7.016;2022-07-22T00:08:38;6.70;;;3.22;;
71753;SDS011;59593;51.716;7.016;2022-07-22T00:11:04;4.68;;;2.90;;
71753;SDS011;59593;51.716;7.016;2022-07-22T00:13:30;6.80;;;2.80;;
71753;SDS011;59593;51.716;7.016;2022-07-22T00:15:56;3.63;;;2.47;;
71753;SDS011;59593;51.716;7.016;2022-07-22T00:18:22;4.50;;;2.88;;
71753;SDS011;59593;51.716;7.016;2022-07-22T00:20:48;4.25;;;2.65;;
71753;SDS011;59593;51.716;7.016;2022-07-22T00:23:13;4.95;;;2.70;;
71753;SDS011;59593;51.716;7.016;2022-07-22T00:25:39;6.30;;;2.70;;
71753;SDS011;59593;51.716;7.016;2022-07-22T00:28:05;4.68;;;2.72;;
71753;SDS011;59593;51.716;7.016;2022-07-22T00:30:30;5.55;;;2.85;;
71753;SDS011;59593;51.716;7.016;2022-07-22T00:32:56;3.83;;;2.50;;
71753;SDS011;59593;51.716;7.016;2022-07-22T00:35:22;7.25;;;2.80;;
71753;SDS011;59593;51.716;7.016;2022-07-22T00:37:48;4.97;;;2.50;;
71753;SDS011;59593;51.716;7.016;2022-07-22T00:40:14;5.53;;;2.78;;
71753;SDS011;59593;51.716;7.016;2022-07-22T00:42:39;3.92;;;2.58;;
71753;SDS011;59593;51.716;7.016;2022-07-22T00:45:05;5.45;;;2.58;;
71753;SDS011;59593;51.716;7.016;2022-07-22T00:47:32;5.57;;;3.05;;
71753;SDS011;59593;51.716;7.016;2022-07-22T00:49:58;7.20;;;3.10;;
71753;SDS011;59593;51.716;7.016;2022-07-22T00:52:23;5.43;;;3.20;;
71753;SDS011;59593;51.716;7.016;2022-07-22T00:54:50;6.43;;;3.33;;
71753;SDS011;59593;51.716;7.016;2022-07-22T00:57:16;4.78;;;3.10;;
71753;SDS011;59593;51.716;7.016;2022-07-22T00:59:42;8.10;;;3.10;;
71753;SDS011;59593;51.716;7.016;2022-07-22T01:02:08;8.18;;;3.17;;
71753;SDS011;59593;51.716;7.016;2022-07-22T01:04:34;5.80;;;3.05;;
71753;SDS011;59593;51.716;7.016;2022-07-22T01:07:00;5.63;;;3.40;;
71753;SDS011;59593;51.716;7.016;2022-07-22T01:09:26;5.55;;;3.42;;
71753;SDS011;59593;51.716;7.016;2022-07-22T01:11:52;5.95;;;3.60;;
71753;SDS011;59593;51.716;7.016;2022-07-22T01:14:17;6.75;;;3.50;;
71753;SDS011;59593;51.716;7.016;2022-07-22T01:16:43;10.27;;;3.78;;
71753;SDS011;59593;51.716;7.016;2022-07-22T01:19:09;9.20;;;3.60;;
71753;SDS011;59593;51.716;7.016;2022-07-22T01:21:35;6.85;;;3.55;;
71753;SDS011;59593;51.716;7.016;2022-07-22T01:24:01;7.57;;;3.80;;
71753;SDS011;59593;51.716;7.016;2022-07-22T01:26:27;8.23;;;3.90;;
71753;SDS011;59593;51.716;7.016;2022-07-22T01:28:53;8.00;;;3.95;;
71753;SDS011;59593;51.716;7.016;2022-07-22T01:31:19;7.70;;;4.10;;
71753;SDS011;59593;51.716;7.016;2022-07-22T01:33:45;8.45;;;3.80;;
71753;SDS011;59593;51.716;7.016;2022-07-22T01:36:10;8.13;;;3.78;;
71753;SDS011;59593;51.716;7.016;2022-07-22T01:38:36;7.53;;;3.75;;
71753;SDS011;59593;51.716;7.016;2022-07-22T01:41:02;6.28;;;3.60;;
71753;SDS011;59593;51.716;7.016;2022-07-22T01:43:28;6.90;;;3.50;;
71753;SDS011;59593;51.716;7.016;2022-07-22T01:45:54;6.40;;;3.80;;
71753;SDS011;59593;51.716;7.016;2022-07-22T01:48:20;7.40;;;3.63;;
71753;SDS011;59593;51.716;7.016;2022-07-22T01:50:46;8.60;;;3.65;;
71753;SDS011;59593;51.716;7.016;2022-07-22T01:53:13;7.13;;;3.65;;
71753;SDS011;59593;51.716;7.016;2022-07-22T01:55:39;10.55;;;3.83;;
71753;SDS011;59593;51.716;7.016;2022-07-22T01:58:05;6.70;;;3.50;;
71753;SDS011;59593;51.716;7.016;2022-07-22T02:00:31;5.95;;;3.38;;
71753;SDS011;59593;51.716;7.016;2022-07-22T02:02:57;9.40;;;3.80;;
71753;SDS011;59593;51.716;7.016;2022-07-22T02:05:23;9.23;;;4.10;;
71753;SDS011;59593;51.716;7.016;2022-07-22T02:07:49;9.23;;;4.00;;
71753;SDS011;59593;51.716;7.016;2022-07-22T02:10:15;8.63;;;4.07;;
71753;SDS011;59593;51.716;7.016;2022-07-22T02:12:40;9.80;;;3.97;;
71753;SDS011;59593;51.716;7.016;2022-07-22T02:15:06;7.22;;;3.67;;
71753;SDS011;59593;51.716;7.016;2022-07-22T02:17:33;7.00;;;3.92;;
71753;SDS011;59593;51.716;7.016;2022-07-22T02:19:59;8.30;;;3.95;;
71753;SDS011;59593;51.716;7.016;2022-07-22T02:22:25;6.38;;;3.70;;
71753;SDS011;59593;51.716;7.016;2022-07-22T02:24:51;12.75;;;4.20;;
71753;SDS011;59593;51.716;7.016;2022-07-22T02:27:16;8.55;;;4.00;;
71753;SDS011;59593;51.716;7.016;2022-07-22T02:29:42;8.98;;;3.70;;
71753;SDS011;59593;51.716;7.016;2022-07-22T02:32:07;9.02;;;3.90;;
71753;SDS011;59593;51.716;7.016;2022-07-22T02:34:33;9.27;;;3.63;;
71753;SDS011;59593;51.716;7.016;2022-07-22T02:36:59;11.00;;;3.70;;
71753;SDS011;59593;51.716;7.016;2022-07-22T02:39:25;11.25;;;4.30;;
71753;SDS011;59593;51.716;7.016;2022-07-22T02:41:50;8.48;;;4.00;;
71753;SDS011;59593;51.716;7.016;2022-07-22T02:44:16;9.98;;;3.88;;
71753;SDS011;59593;51.716;7.016;2022-07-22T02:46:42;7.03;;;3.60;;
71753;SDS011;59593;51.716;7.016;2022-07-22T02:49:07;7.70;;;3.70;;
71753;SDS011;59593;51.716;7.016;2022-07-22T02:51:33;7.65;;;3.97;;
71753;SDS011;59593;51.716;7.016;2022-07-22T02:53:58;8.77;;;4.03;;
71753;SDS011;59593;51.716;7.016;2022-07-22T02:56:24;8.75;;;3.90;;
71753;SDS011;59593;51.716;7.016;2022-07-22T02:58:50;6.65;;;4.20;;
71753;SDS011;59593;51.716;7.016;2022-07-22T03:01:18;8.73;;;4.20;;
71753;SDS011;59593;51.716;7.016;2022-07-22T03:03:44;8.15;;;4.10;;
71753;SDS011;59593;51.716;7.016;2022-07-22T03:06:11;11.85;;;4.00;;
71753;SDS011;59593;51.716;7.016;2022-07-22T03:08:37;9.80;;;4.25;;
71753;SDS011;59593;51.716;7.016;2022-07-22T03:11:03;10.20;;;4.50;;
71753;SDS011;59593;51.716;7.016;2022-07-22T03:13:29;5.78;;;3.63;;
71753;SDS011;59593;51.716;7.016;2022-07-22T03:15:54;6.80;;;4.00;;
71753;SDS011;59593;51.716;7.016;2022-07-22T03:18:20;8.52;;;4.00;;
71753;SDS011;59593;51.716;7.016;2022-07-22T03:20:46;12.32;;;3.92;;
71753;SDS011;59593;51.716;7.016;2022-07-22T03:23:12;8.20;;;3.50;;
71753;SDS011;59593;51.716;7.016;2022-07-22T03:25:38;10.48;;;4.18;;
71753;SDS011;59593;51.716;7.016;2022-07-22T03:28:04;9.40;;;4.30;;
71753;SDS011;59593;51.716;7.016;2022-07-22T03:30:30;9.15;;;3.80;;
71753;SDS011;59593;51.716;7.016;2022-07-22T03:32:55;6.43;;;3.50;;
71753;SDS011;59593;51.716;7.016;2022-07-22T03:35:21;11.10;;;4.00;;
71753;SDS011;59593;51.716;7.016;2022-07-22T03:37:47;6.80;;;3.75;;
71753;SDS011;59593;51.716;7.016;2022-07-22T03:40:13;8.60;;;3.75;;
71753;SDS011;59593;51.716;7.016;2022-07-22T03:42:39;6.78;;;3.83;;
71753;SDS011;59593;51.716;7.016;2022-07-22T03:45:04;9.85;;;3.60;;
71753;SDS011;59593;51.716;7.016;2022-07-22T03:47:30;7.00;;;3.70;;
71753;SDS011;59593;51.716;7.016;2022-07-22T03:49:56;10.60;;;3.75;;
71753;SDS011;59593;51.716;7.016;2022-07-22T03:52:23;8.93;;;4.47;;
71753;SDS011;59593;51.716;7.016;2022-07-22T03:54:49;11.40;;;4.03;;
71753;SDS011;59593;51.716;7.016;2022-07-22T03:57:15;6.28;;;3.67;;
71753;SDS011;59593;51.716;7.016;2022-07-22T03:59:40;7.07;;;3.83;;
71753;SDS011;59593;51.716;7.016;2022-07-22T04:02:09;8.02;;;3.78;;
71753;SDS011;59593;51.716;7.016;2022-07-22T04:04:34;8.68;;;3.28;;
71753;SDS011;59593;51.716;7.016;2022-07-22T04:07:00;9.18;;;3.83;;
71753;SDS011;59593;51.716;7.016;2022-07-22T04:09:25;7.93;;;3.75;;
71753;SDS011;59593;51.716;7.016;2022-07-22T04:11:51;11.60;;;4.40;;
71753;SDS011;59593;51.716;7.016;2022-07-22T04:14:17;7.28;;;3.72;;
71753;SDS011;59593;51.716;7.016;2022-07-22T04:16:43;9.20;;;3.83;;
71753;SDS011;59593;51.716;7.016;2022-07-22T04:19:09;7.28;;;3.40;;
71753;SDS011;59593;51.716;7.016;2022-07-22T04:21:35;8.20;;;3.58;;
71753;SDS011;59593;51.716;7.016;2022-07-22T04:24:02;8.70;;;3.70;;
71753;SDS011;59593;51.716;7.016;2022-07-22T04:26:28;8.77;;;4.00;;
71753;SDS011;59593;51.716;7.016;2022-07-22T04:28:53;12.93;;;4.30;;
71753;SDS011;59593;51.716;7.016;2022-07-22T04:31:19;9.38;;;4.35;;
71753;SDS011;59593;51.716;7.016;2022-07-22T04:33:45;8.88;;;4.15;;
71753;SDS011;59593;51.716;7.016;2022-07-22T04:36:10;6.90;;;4.40;;
71753;SDS011;59593;51.716;7.016;2022-07-22T04:38:36;7.82;;;4.60;;
71753;SDS011;59593;51.716;7.016;2022-07-22T04:41:02;9.52;;;4.93;;
71753;SDS011;59593;51.716;7.016;2022-07-22T04:43:27;12.25;;;4.90;;
71753;SDS011;59593;51.716;7.016;2022-07-22T04:45:54;9.68;;;4.60;;
71753;SDS011;59593;51.716;7.016;2022-07-22T04:48:20;11.45;;;4.30;;
71753;SDS011;59593;51.716;7.016;2022-07-22T04:50:46;12.88;;;4.20;;
71753;SDS011;59593;51.716;7.016;2022-07-22T04:53:11;8.80;;;4.55;;
71753;SDS011;59593;51.716;7.016;2022-07-22T04:55:37;8.60;;;4.43;;
71753;SDS011;59593;51.716;7.016;2022-07-22T04:58:03;12.15;;;4.38;;
71753;SDS011;59593;51.716;7.016;2022-07-22T05:00:28;9.30;;;4.47;;
71753;SDS011;59593;51.716;7.016;2022-07-22T05:02:54;9.90;;;4.35;;
71753;SDS011;59593;51.716;7.016;2022-07-22T05:05:20;13.07;;;4.45;;
71753;SDS011;59593;51.716;7.016;2022-07-22T05:07:46;8.35;;;4.40;;
71753;SDS011;59593;51.716;7.016;2022-07-22T05:10:12;12.10;;;4.75;;
71753;SDS011;59593;51.716;7.016;2022-07-22T05:12:38;9.90;;;4.10;;
71753;SDS011;59593;51.716;7.016;2022-07-22T05:15:03;9.50;;;4.13;;
71753;SDS011;59593;51.716;7.016;2022-07-22T05:17:29;11.02;;;4.57;;
71753;SDS011;59593;51.716;7.016;2022-07-22T05:19:55;8.20;;;3.97;;
71753;SDS011;59593;51.716;7.016;2022-07-22T05:22:21;10.15;;;4.05;;
71753;SDS011;59593;51.716;7.016;2022-07-22T05:24:46;9.18;;;3.75;;
71753;SDS011;59593;51.716;7.016;2022-07-22T05:27:12;7.22;;;4.28;;
71753;SDS011;59593;51.716;7.016;2022-07-22T05:29:38;10.20;;;4.35;;
71753;SDS011;59593;51.716;7.016;2022-07-22T05:32:04;8.75;;;3.83;;
71753;SDS011;59593;51.716;7.016;2022-07-22T05:34:30;12.38;;;4.07;;
71753;SDS011;59593;51.716;7.016;2022-07-22T05:36:55;15.27;;;4.15;;
71753;SDS011;59593;51.716;7.016;2022-07-22T05:39:21;10.98;;;3.88;;
71753;SDS011;59593;51.716;7.016;2022-07-22T05:41:47;7.20;;;3.70;;
71753;SDS011;59593;51.716;7.016;2022-07-22T05:44:13;7.53;;;3.63;;
71753;SDS011;59593;51.716;7.016;2022-07-22T05:46:39;12.27;;;4.25;;
71753;SDS011;59593;51.716;7.016;2022-07-22T05:49:04;8.00;;;4.07;;
71753;SDS011;59593;51.716;7.016;2022-07-22T05:51:30;9.13;;;4.40;;
71753;SDS011;59593;51.716;7.016;2022-07-22T05:53:56;8.35;;;3.70;;
71753;SDS011;59593;51.716;7.016;2022-07-22T05:56:21;6.70;;;3.65;;
71753;SDS011;59593;51.716;7.016;2022-07-22T05:58:47;7.15;;;3.63;;
71753;SDS011;59593;51.716;7.016;2022-07-22T06:01:13;8.13;;;3.40;;
71753;SDS011;59593;51.716;7.016;2022-07-22T06:03:39;7.25;;;3.50;;
71753;SDS011;59593;51.716;7.016;2022-07-22T06:06:04;8.00;;;3.70;;
71753;SDS011;59593;51.716;7.016;2022-07-22T06:08:33;8.68;;;3.70;;
71753;SDS011;59593;51.716;7.016;2022-07-22T06:11:00;8.80;;;3.88;;
71753;SDS011;59593;51.716;7.016;2022-07-22T06:13:26;13.07;;;3.70;;
71753;SDS011;59593;51.716;7.016;2022-07-22T06:15:52;7.15;;;3.70;;
71753;SDS011;59593;51.716;7.016;2022-07-22T06:18:18;13.50;;;3.50;;
71753;SDS011;59593;51.716;7.016;2022-07-22T06:20:44;9.27;;;3.63;;
71753;SDS011;59593;51.716;7.016;2022-07-22T06:23:09;6.88;;;3.03;;
71753;SDS011;59593;51.716;7.016;2022-07-22T06:25:35;8.40;;;3.35;;
71753;SDS011;59593;51.716;7.016;2022-07-22T06:28:01;9.10;;;3.58;;
71753;SDS011;59593;51.716;7.016;2022-07-22T06:30:27;9.23;;;3.45;;
71753;SDS011;59593;51.716;7.016;2022-07-22T06:32:53;7.55;;;3.40;;
71753;SDS011;59593;51.716;7.016;2022-07-22T06:35:18;7.70;;;3.20;;
71753;SDS011;59593;51.716;7.016;2022-07-22T06:37:44;11.10;;;2.95;;
71753;SDS011;59593;51.716;7.016;2022-07-22T06:40:10;10.43;;;2.97;;
71753;SDS011;59593;51.716;7.016;2022-07-22T06:42:36;7.80;;;2.40;;
71753;SDS011;59593;51.716;7.016;2022-07-22T06:45:05;5.35;;;2.65;;
71753;SDS011;59593;51.716;7.016;2022-07-22T06:47:31;9.90;;;3.28;;
71753;SDS011;59593;51.716;7.016;2022-07-22T06:50:00;6.20;;;2.78;;
71753;SDS011;59593;51.716;7.016;2022-07-22T06:52:30;10.32;;;2.83;;
71753;SDS011;59593;51.716;7.016;2022-07-22T06:54:56;5.38;;;2.25;;
71753;SDS011;59593;51.716;7.016;2022-07-22T06:57:22;7.15;;;2.90;;
71753;SDS011;59593;51.716;7.016;2022-07-22T06:59:47;9.30;;;2.80;;
71753;SDS011;59593;51.716;7.016;2022-07-22T07:02:13;7.35;;;2.80;;
71753;SDS011;59593;51.716;7.016;2022-07-22T07:04:39;9.45;;;3.20;;
71753;SDS011;59593;51.716;7.016;2022-07-22T07:07:04;7.60;;;3.08;;
71753;SDS011;59593;51.716;7.016;2022-07-22T07:09:30;5.63;;;3.00;;
71753;SDS011;59593;51.716;7.016;2022-07-22T07:11:57;10.52;;;3.17;;
71753;SDS011;59593;51.716;7.016;2022-07-22T07:14:22;6.25;;;3.20;;
71753;SDS011;59593;51.716;7.016;2022-07-22T07:16:48;8.27;;;3.15;;
71753;SDS011;59593;51.716;7.016;2022-07-22T07:19:14;6.25;;;2.78;;
71753;SDS011;59593;51.716;7.016;2022-07-22T07:21:39;6.43;;;3.17;;
71753;SDS011;59593;51.716;7.016;2022-07-22T07:24:05;6.60;;;2.72;;
71753;SDS011;59593;51.716;7.016;2022-07-22T07:26:31;8.27;;;3.03;;
71753;SDS011;59593;51.716;7.016;2022-07-22T07:28:57;5.55;;;2.75;;
71753;SDS011;59593;51.716;7.016;2022-07-22T07:31:22;5.40;;;2.90;;
71753;SDS011;59593;51.716;7.016;2022-07-22T07:33:48;5.90;;;2.72;;
71753;SDS011;59593;51.716;7.016;2022-07-22T07:36:14;5.45;;;2.88;;
71753;SDS011;59593;51.716;7.016;2022-07-22T07:38:40;8.15;;;3.28;;
71753;SDS011;59593;51.716;7.016;2022-07-22T07:41:06;7.97;;;3.10;;
71753;SDS011;59593;51.716;7.016;2022-07-22T07:43:32;9.05;;;3.47;;
71753;SDS011;59593;51.716;7.016;2022-07-22T07:45:58;6.07;;;3.00;;
71753;SDS011;59593;51.716;7.016;2022-07-22T07:48:24;5.53;;;2.75;;
71753;SDS011;59593;51.716;7.016;2022-07-22T07:50:49;7.25;;;3.42;;
71753;SDS011;59593;51.716;7.016;2022-07-22T07:53:15;8.93;;;3.20;;
71753;SDS011;59593;51.716;7.016;2022-07-22T07:55:41;9.90;;;3.40;;
71753;SDS011;59593;51.716;7.016;2022-07-22T07:58:07;6.82;;;3.00;;
71753;SDS011;59593;51.716;7.016;2022-07-22T08:00:33;7.05;;;3.22;;
71753;SDS011;59593;51.716;7.016;2022-07-22T08:03:00;7.68;;;2.95;;
71753;SDS011;59593;51.716;7.016;2022-07-22T08:05:27;7.25;;;2.65;;
71753;SDS011;59593;51.716;7.016;2022-07-22T08:07:53;5.60;;;2.90;;
71753;SDS011;59593;51.716;7.016;2022-07-22T08:10:19;6.85;;;3.17;;
71753;SDS011;59593;51.716;7.016;2022-07-22T08:12:45;6.45;;;3.05;;
71753;SDS011;59593;51.716;7.016;2022-07-22T08:15:12;6.65;;;3.13;;
71753;SDS011;59593;51.716;7.016;2022-07-22T08:17:38;5.32;;;3.03;;
71753;SDS011;59593;51.716;7.016;2022-07-22T08:20:04;10.57;;;3.70;;
71753;SDS011;59593;51.716;7.016;2022-07-22T08:22:30;7.47;;;3.40;;
71753;SDS011;59593;51.716;7.016;2022-07-22T08:24:56;8.95;;;3.38;;
71753;SDS011;59593;51.716;7.016;2022-07-22T08:27:21;8.80;;;3.60;;
71753;SDS011;59593;51.716;7.016;2022-07-22T08:29:47;5.38;;;3.47;;
71753;SDS011;59593;51.716;7.016;2022-07-22T08:32:13;5.80;;;3.17;;
71753;SDS011;59593;51.716;7.016;2022-07-22T08:34:39;8.80;;;3.38;;
71753;SDS011;59593;51.716;7.016;2022-07-22T08:37:04;7.93;;;3.22;;
71753;SDS011;59593;51.716;7.016;2022-07-22T08:39:30;6.03;;;3.40;;
71753;SDS011;59593;51.716;7.016;2022-07-22T08:41:56;8.52;;;2.90;;
71753;SDS011;59593;51.716;7.016;2022-07-22T08:44:22;8.93;;;3.13;;
71753;SDS011;59593;51.716;7.016;2022-07-22T08:46:48;6.32;;;3.17;;
71753;SDS011;59593;51.716;7.016;2022-07-22T08:49:17;6.47;;;2.83;;
71753;SDS011;59593;51.716;7.016;2022-07-22T08:51:43;6.47;;;3.30;;
71753;SDS011;59593;51.716;7.016;2022-07-22T08:54:09;7.05;;;3.53;;
71753;SDS011;59593;51.716;7.016;2022-07-22T08:56:34;7.40;;;3.03;;
71753;SDS011;59593;51.716;7.016;2022-07-22T08:59:03;6.18;;;3.00;;
71753;SDS011;59593;51.716;7.016;2022-07-22T09:01:29;5.18;;;2.90;;
71753;SDS011;59593;51.716;7.016;2022-07-22T09:03:56;9.10;;;3.42;;
71753;SDS011;59593;51.716;7.016;2022-07-22T09:06:23;4.93;;;2.97;;
71753;SDS011;59593;51.716;7.016;2022-07-22T09:08:58;9.38;;;3.63;;
71753;SDS011;59593;51.716;7.016;2022-07-22T09:11:34;5.88;;;2.80;;
71753;SDS011;59593;51.716;7.016;2022-07-22T09:14:00;6.53;;;3.15;;
71753;SDS011;59593;51.716;7.016;2022-07-22T09:16:42;9.52;;;3.40;;
71753;SDS011;59593;51.716;7.016;2022-07-22T09:19:10;7.63;;;3.30;;
71753;SDS011;59593;51.716;7.016;2022-07-22T09:21:38;6.25;;;3.13;;
71753;SDS011;59593;51.716;7.016;2022-07-22T09:24:06;6.35;;;3.00;;
71753;SDS011;59593;51.716;7.016;2022-07-22T09:26:33;8.32;;;3.72;;
71753;SDS011;59593;51.716;7.016;2022-07-22T09:29:00;8.57;;;3.20;;
71753;SDS011;59593;51.716;7.016;2022-07-22T09:31:26;6.75;;;3.30;;
71753;SDS011;59593;51.716;7.016;2022-07-22T09:33:58;6.68;;;3.80;;
71753;SDS011;59593;51.716;7.016;2022-07-22T09:36:24;9.65;;;3.40;;
71753;SDS011;59593;51.716;7.016;2022-07-22T09:38:50;7.30;;;3.08;;
71753;SDS011;59593;51.716;7.016;2022-07-22T09:41:16;9.25;;;3.50;;
71753;SDS011;59593;51.716;7.016;2022-07-22T09:43:42;6.88;;;3.70;;
71753;SDS011;59593;51.716;7.016;2022-07-22T09:46:08;7.47;;;3.70;;
71753;SDS011;59593;51.716;7.016;2022-07-22T09:48:35;8.02;;;3.30;;
71753;SDS011;59593;51.716;7.016;2022-07-22T09:51:02;7.03;;;3.38;;
71753;SDS011;59593;51.716;7.016;2022-07-22T09:53:29;8.50;;;3.63;;
71753;SDS011;59593;51.716;7.016;2022-07-22T09:55:56;5.55;;;3.60;;
71753;SDS011;59593;51.716;7.016;2022-07-22T09:58:23;7.65;;;3.53;;
71753;SDS011;59593;51.716;7.016;2022-07-22T10:00:50;6.55;;;3.40;;
71753;SDS011;59593;51.716;7.016;2022-07-22T10:03:18;8.95;;;3.85;;
71753;SDS011;59593;51.716;7.016;2022-07-22T10:05:50;6.57;;;3.70;;
71753;SDS011;59593;51.716;7.016;2022-07-22T10:08:20;10.20;;;4.07;;
71753;SDS011;59593;51.716;7.016;2022-07-22T10:10:45;8.40;;;3.53;;
71753;SDS011;59593;51.716;7.016;2022-07-22T10:13:11;7.85;;;3.55;;
71753;SDS011;59593;51.716;7.016;2022-07-22T10:15:37;7.78;;;3.10;;
71753;SDS011;59593;51.716;7.016;2022-07-22T10:18:07;7.60;;;3.70;;
71753;SDS011;59593;51.716;7.016;2022-07-22T10:20:41;7.20;;;4.00;;
71753;SDS011;59593;51.716;7.016;2022-07-22T10:23:07;6.97;;;3.60;;
71753;SDS011;59593;51.716;7.016;2022-07-22T10:25:53;6.65;;;3.83;;
71753;SDS011;59593;51.716;7.016;2022-07-22T10:28:31;8.00;;;3.47;;
71753;SDS011;59593;51.716;7.016;2022-07-22T10:33:54;7.15;;;3.97;;
71753;SDS011;59593;51.716;7.016;2022-07-22T10:36:31;10.10;;;4.07;;
71753;SDS011;59593;51.716;7.016;2022-07-22T10:39:11;7.57;;;3.50;;
71753;SDS011;59593;51.716;7.016;2022-07-22T10:41:42;7.15;;;3.70;;
71753;SDS011;59593;51.716;7.016;2022-07-22T10:44:10;5.07;;;3.47;;
71753;SDS011;59593;51.716;7.016;2022-07-22T10:49:16;7.03;;;3.83;;
71753;SDS011;59593;51.716;7.016;2022-07-22T10:57:45;5.68;;;3.53;;
71753;SDS011;59593;51.716;7.016;2022-07-22T11:00:13;7.28;;;3.65;;
71753;SDS011;59593;51.716;7.016;2022-07-22T11:02:39;6.57;;;4.15;;
71753;SDS011;59593;51.716;7.016;2022-07-22T11:05:05;12.60;;;3.92;;
71753;SDS011;59593;51.716;7.016;2022-07-22T11:07:32;7.78;;;4.15;;
71753;SDS011;59593;51.716;7.016;2022-07-22T11:10:16;9.20;;;3.97;;
71753;SDS011;59593;51.716;7.016;2022-07-22T11:12:44;8.68;;;4.00;;
71753;SDS011;59593;51.716;7.016;2022-07-22T11:15:14;6.97;;;3.70;;
71753;SDS011;59593;51.716;7.016;2022-07-22T11:17:40;6.82;;;3.42;;
71753;SDS011;59593;51.716;7.016;2022-07-22T11:20:10;6.75;;;3.10;;
71753;SDS011;59593;51.716;7.016;2022-07-22T11:22:37;5.25;;;3.30;;
71753;SDS011;59593;51.716;7.016;2022-07-22T11:25:05;5.38;;;3.22;;
71753;SDS011;59593;51.716;7.016;2022-07-22T11:27:33;5.53;;;3.25;;
71753;SDS011;59593;51.716;7.016;2022-07-22T11:29:59;7.95;;;3.85;;
71753;SDS011;59593;51.716;7.016;2022-07-22T11:32:25;5.22;;;3.90;;
71753;SDS011;59593;51.716;7.016;2022-07-22T11:34:57;7.18;;;3.80;;
71753;SDS011;59593;51.716;7.016;2022-07-22T11:37:24;7.97;;;4.50;;
71753;SDS011;59593;51.716;7.016;2022-07-22T11:39:55;5.60;;;3.47;;
71753;SDS011;59593;51.716;7.016;2022-07-22T11:42:25;7.65;;;3.70;;
71753;SDS011;59593;51.716;7.016;2022-07-22T11:44:51;6.20;;;3.80;;
71753;SDS011;59593;51.716;7.016;2022-07-22T11:47:16;7.57;;;3.60;;
71753;SDS011;59593;51.716;7.016;2022-07-22T11:49:45;8.48;;;4.00;;
71753;SDS011;59593;51.716;7.016;2022-07-22T11:52:13;6.35;;;3.70;;
71753;SDS011;59593;51.716;7.016;2022-07-22T11:54:39;6.55;;;4.18;;
71753;SDS011;59593;51.716;7.016;2022-07-22T11:57:06;5.53;;;4.22;;
71753;SDS011;59593;51.716;7.016;2022-07-22T11:59:32;9.55;;;4.38;;
71753;SDS011;59593;51.716;7.016;2022-07-22T12:01:59;5.78;;;4.10;;
71753;SDS011;59593;51.716;7.016;2022-07-22T12:04:25;5.47;;;4.18;;
71753;SDS011;59593;51.716;7.016;2022-07-22T12:06:52;8.75;;;4.10;;
71753;SDS011;59593;51.716;7.016;2022-07-22T12:09:39;9.57;;;4.25;;
71753;SDS011;59593;51.716;7.016;2022-07-22T12:12:07;6.32;;;4.05;;
71753;SDS011;59593;51.716;7.016;2022-07-22T12:14:33;6.32;;;4.00;;
71753;SDS011;59593;51.716;7.016;2022-07-22T12:19:31;8.82;;;4.20;;
71753;SDS011;59593;51.716;7.016;2022-07-22T12:22:02;6.35;;;3.75;;
71753;SDS011;59593;51.716;7.016;2022-07-22T12:24:33;8.02;;;4.30;;
71753;SDS011;59593;51.716;7.016;2022-07-22T12:27:00;7.68;;;3.95;;
71753;SDS011;59593;51.716;7.016;2022-07-22T12:29:41;5.50;;;3.95;;
71753;SDS011;59593;51.716;7.016;2022-07-22T12:40:06;7.18;;;3.75;;
71753;SDS011;59593;51.716;7.016;2022-07-22T12:42:46;6.18;;;3.33;;
71753;SDS011;59593;51.716;7.016;2022-07-22T12:45:29;6.38;;;3.53;;
71753;SDS011;59593;51.716;7.016;2022-07-22T12:53:11;5.20;;;3.60;;
71753;SDS011;59593;51.716;7.016;2022-07-22T12:55:43;6.35;;;3.38;;
71753;SDS011;59593;51.716;7.016;2022-07-22T12:58:10;6.95;;;3.60;;
71753;SDS011;59593;51.716;7.016;2022-07-22T13:00:37;6.68;;;3.20;;
71753;SDS011;59593;51.716;7.016;2022-07-22T13:03:05;5.85;;;3.10;;
71753;SDS011;59593;51.716;7.016;2022-07-22T13:05:31;7.45;;;2.72;;
71753;SDS011;59593;51.716;7.016;2022-07-22T13:07:57;5.95;;;3.03;;
71753;SDS011;59593;51.716;7.016;2022-07-22T13:10:23;5.38;;;3.05;;
71753;SDS011;59593;51.716;7.016;2022-07-22T13:12:50;7.00;;;2.90;;
71753;SDS011;59593;51.716;7.016;2022-07-22T13:15:17;6.35;;;3.40;;
71753;SDS011;59593;51.716;7.016;2022-07-22T13:17:43;6.57;;;2.88;;
71753;SDS011;59593;51.716;7.016;2022-07-22T13:20:10;4.40;;;3.33;;
71753;SDS011;59593;51.716;7.016;2022-07-22T13:22:38;5.68;;;3.28;;
71753;SDS011;59593;51.716;7.016;2022-07-22T13:25:04;7.47;;;3.30;;
71753;SDS011;59593;51.716;7.016;2022-07-22T13:27:31;6.70;;;3.30;;
71753;SDS011;59593;51.716;7.016;2022-07-22T13:29:57;5.75;;;3.38;;
71753;SDS011;59593;51.716;7.016;2022-07-22T13:32:22;5.30;;;3.45;;
71753;SDS011;59593;51.716;7.016;2022-07-22T13:34:48;4.47;;;3.20;;
71753;SDS011;59593;51.716;7.016;2022-07-22T13:37:14;8.57;;;3.47;;
71753;SDS011;59593;51.716;7.016;2022-07-22T13:39:40;5.82;;;3.97;;
71753;SDS011;59593;51.716;7.016;2022-07-22T13:42:06;6.75;;;3.30;;
71753;SDS011;59593;51.716;7.016;2022-07-22T13:44:32;7.40;;;3.05;;
71753;SDS011;59593;51.716;7.016;2022-07-22T13:47:00;5.22;;;3.45;;
71753;SDS011;59593;51.716;7.016;2022-07-22T13:49:26;6.85;;;3.22;;
71753;SDS011;59593;51.716;7.016;2022-07-22T13:51:52;4.95;;;3.70;;
71753;SDS011;59593;51.716;7.016;2022-07-22T13:54:18;7.07;;;3.40;;
71753;SDS011;59593;51.716;7.016;2022-07-22T13:56:45;6.93;;;3.75;;
71753;SDS011;59593;51.716;7.016;2022-07-22T13:59:14;4.93;;;2.90;;
71753;SDS011;59593;51.716;7.016;2022-07-22T14:01:41;7.07;;;3.25;;
71753;SDS011;59593;51.716;7.016;2022-07-22T14:04:07;4.13;;;3.00;;
71753;SDS011;59593;51.716;7.016;2022-07-22T14:06:33;7.18;;;3.38;;
71753;SDS011;59593;51.716;7.016;2022-07-22T14:08:59;6.05;;;3.70;;
71753;SDS011;59593;51.716;7.016;2022-07-22T14:11:25;7.72;;;3.72;;
71753;SDS011;59593;51.716;7.016;2022-07-22T14:13:51;7.05;;;3.40;;
71753;SDS011;59593;51.716;7.016;2022-07-22T14:16:16;6.53;;;3.00;;
71753;SDS011;59593;51.716;7.016;2022-07-22T14:19:07;6.63;;;3.60;;
71753;SDS011;59593;51.716;7.016;2022-07-22T14:21:35;4.53;;;3.22;;
71753;SDS011;59593;51.716;7.016;2022-07-22T14:24:02;5.20;;;3.22;;
71753;SDS011;59593;51.716;7.016;2022-07-22T14:26:29;6.03;;;3.60;;
71753;SDS011;59593;51.716;7.016;2022-07-22T14:28:55;9.18;;;4.20;;
71753;SDS011;59593;51.716;7.016;2022-07-22T14:31:21;8.65;;;3.95;;
71753;SDS011;59593;51.716;7.016;2022-07-22T14:33:47;5.03;;;3.65;;
71753;SDS011;59593;51.716;7.016;2022-07-22T14:36:13;5.13;;;3.83;;
71753;SDS011;59593;51.716;7.016;2022-07-22T14:38:38;7.30;;;3.83;;
71753;SDS011;59593;51.716;7.016;2022-07-22T14:41:04;7.38;;;3.50;;
71753;SDS011;59593;51.716;7.016;2022-07-22T14:43:31;6.85;;;3.50;;
71753;SDS011;59593;51.716;7.016;2022-07-22T14:45:57;6.38;;;3.67;;
71753;SDS011;59593;51.716;7.016;2022-07-22T14:48:26;5.13;;;3.42;;
71753;SDS011;59593;51.716;7.016;2022-07-22T14:50:52;9.93;;;3.95;;
71753;SDS011;59593;51.716;7.016;2022-07-22T14:53:18;5.50;;;3.25;;
71753;SDS011;59593;51.716;7.016;2022-07-22T14:55:44;6.75;;;4.10;;
71753;SDS011;59593;51.716;7.016;2022-07-22T14:58:09;6.10;;;3.63;;
71753;SDS011;59593;51.716;7.016;2022-07-22T15:00:35;6.43;;;3.28;;
71753;SDS011;59593;51.716;7.016;2022-07-22T15:03:01;8.82;;;3.33;;
71753;SDS011;59593;51.716;7.016;2022-07-22T15:05:26;6.03;;;2.85;;
71753;SDS011;59593;51.716;7.016;2022-07-22T15:07:52;6.10;;;3.28;;
71753;SDS011;59593;51.716;7.016;2022-07-22T15:10:18;6.32;;;3.38;;